createdAt,value
2017-07-01T00:00:54.886Z,79.50
2017-07-01T00:03:23.549Z,79.90
2017-07-01T00:05:51.817Z,80.60
2017-07-01T00:08:24.202Z,80.40
2017-07-01T00:10:51.680Z,80.60
2017-07-01T00:13:20.197Z,80.10
2017-07-01T00:15:50.587Z,80.40
2017-07-01T00:18:21.016Z,79.50
2017-07-01T00:20:48.507Z,80.10
2017-07-01T00:23:18.438Z,80.00
2017-07-01T00:25:47.080Z,80.00
2017-07-01T00:28:15.452Z,80.20
2017-07-01T00:30:48.985Z,79.90
2017-07-01T00:33:18.842Z,80.00
2017-07-01T00:35:46.911Z,79.60
2017-07-01T00:38:14.948Z,80.10
2017-07-01T00:40:43.002Z,80.70
2017-07-01T00:43:10.693Z,81.20
2017-07-01T00:45:39.370Z,80.60
2017-07-01T00:48:07.875Z,80.80
2017-07-01T00:50:41.881Z,80.90
2017-07-01T00:53:13.299Z,81.70
2017-07-01T00:55:41.692Z,81.60
2017-07-01T00:58:17.439Z,80.70
2017-07-01T01:03:42.986Z,80.60
2017-07-01T01:06:16.475Z,80.30
2017-07-01T01:08:46.880Z,80.40
2017-07-01T01:11:17.329Z,80.10
2017-07-01T01:13:44.855Z,80.40
2017-07-01T01:16:19.482Z,80.60
2017-07-01T01:18:47.007Z,80.50
2017-07-01T01:21:16.229Z,80.00
2017-07-01T01:23:47.828Z,80.20
2017-07-01T01:26:18.468Z,80.70
2017-07-01T01:28:47.547Z,81.50
2017-07-01T01:31:15.039Z,81.30
2017-07-01T01:33:47.142Z,80.80
2017-07-01T01:36:22.250Z,80.30
2017-07-01T01:38:50.288Z,80.40
2017-07-01T01:41:20.188Z,80.30
2017-07-01T01:43:47.719Z,80.90
2017-07-01T01:46:15.278Z,80.70
2017-07-01T01:48:42.851Z,80.30
2017-07-01T01:51:11.315Z,80.60
2017-07-01T01:53:38.789Z,80.90
2017-07-01T01:56:06.382Z,80.00
2017-07-01T01:58:33.951Z,80.30
2017-07-01T02:01:01.447Z,80.70
2017-07-01T02:03:30.863Z,81.10
2017-07-01T02:06:02.419Z,80.80
2017-07-01T02:08:48.700Z,80.30
2017-07-01T02:11:23.089Z,80.60
2017-07-01T02:13:51.376Z,81.00
2017-07-01T02:16:30.235Z,81.20
2017-07-01T02:18:57.815Z,81.10
2017-07-01T02:21:27.235Z,81.10
2017-07-01T02:23:55.532Z,81.50
2017-07-01T02:26:25.609Z,81.90
2017-07-01T02:28:55.975Z,81.80
2017-07-01T02:31:24.582Z,81.60
2017-07-01T02:33:52.943Z,81.70
2017-07-01T02:36:21.336Z,81.10
2017-07-01T02:38:48.820Z,81.60
2017-07-01T02:41:17.509Z,81.80
2017-07-01T02:43:46.212Z,82.00
2017-07-01T02:46:21.556Z,81.90
2017-07-01T02:49:17.862Z,82.10
2017-07-01T02:51:57.710Z,82.50
2017-07-01T02:54:30.500Z,82.70
2017-07-01T02:57:01.869Z,83.10
2017-07-01T02:59:45.983Z,82.80
2017-07-01T03:02:15.672Z,82.90
2017-07-01T03:04:43.911Z,83.00
2017-07-01T03:07:16.043Z,82.90
2017-07-01T03:09:44.299Z,83.10
2017-07-01T03:12:11.774Z,82.80
2017-07-01T03:14:41.032Z,82.90
2017-07-01T03:17:10.492Z,83.70
2017-07-01T03:19:41.658Z,83.10
2017-07-01T03:22:11.179Z,83.30
2017-07-01T03:24:43.854Z,83.50
2017-07-01T03:27:13.308Z,83.90
2017-07-01T03:29:41.990Z,82.90
2017-07-01T03:32:09.608Z,83.00
2017-07-01T03:34:40.111Z,82.90
2017-07-01T03:37:14.971Z,82.90
2017-07-01T03:39:57.939Z,82.80
2017-07-01T03:42:37.638Z,82.80
2017-07-01T03:45:33.307Z,82.70
2017-07-01T03:48:01.527Z,82.30
2017-07-01T03:50:34.271Z,82.40
2017-07-01T03:53:34.584Z,82.40
2017-07-01T03:56:07.317Z,82.00
2017-07-01T03:58:34.831Z,81.50
2017-07-01T04:01:03.465Z,81.90
2017-07-01T04:03:33.346Z,81.20
2017-07-01T04:06:01.739Z,81.20
2017-07-01T04:08:29.191Z,80.70
2017-07-01T04:10:56.731Z,80.50
2017-07-01T04:13:25.104Z,80.80
2017-07-01T04:15:52.575Z,81.10
2017-07-01T04:18:25.976Z,81.50
2017-07-01T04:20:53.484Z,81.00
2017-07-01T04:23:20.982Z,81.70
2017-07-01T04:25:48.474Z,81.70
2017-07-01T04:28:16.856Z,81.60
2017-07-01T04:30:45.721Z,81.70
2017-07-01T04:33:13.212Z,81.70
2017-07-01T04:35:42.109Z,81.10
2017-07-01T04:38:11.087Z,81.00
2017-07-01T04:40:43.941Z,81.60
2017-07-01T04:43:46.893Z,81.50
2017-07-01T04:46:25.436Z,81.80
2017-07-01T04:48:57.917Z,81.00
2017-07-01T04:51:49.028Z,81.10
2017-07-01T04:54:37.248Z,81.30
2017-07-01T04:57:24.766Z,80.90
2017-07-01T05:00:01.872Z,81.30
2017-07-01T05:02:30.196Z,81.20
2017-07-01T05:04:58.039Z,80.50
2017-07-01T05:07:50.230Z,80.30
2017-07-01T05:10:34.398Z,80.70
2017-07-01T05:13:01.936Z,81.00
2017-07-01T05:15:41.013Z,81.10
2017-07-01T05:18:09.237Z,81.00
2017-07-01T05:20:48.351Z,80.80
2017-07-01T05:23:33.422Z,80.80
2017-07-01T05:26:04.628Z,81.30
2017-07-01T05:28:37.516Z,81.20
2017-07-01T05:31:27.439Z,81.40
2017-07-01T05:34:14.546Z,81.50
2017-07-01T05:36:44.491Z,82.60
2017-07-01T05:39:29.806Z,81.80
2017-07-01T05:42:19.675Z,81.70
2017-07-01T05:44:52.155Z,82.00
2017-07-01T05:47:19.716Z,82.10
2017-07-01T05:49:47.280Z,82.70
2017-07-01T05:52:14.803Z,82.80
2017-07-01T05:54:43.743Z,82.60
2017-07-01T05:57:11.222Z,83.30
2017-07-01T05:59:40.201Z,82.00
2017-07-01T06:02:09.346Z,83.10
2017-07-01T06:04:36.860Z,81.60
2017-07-01T06:07:08.506Z,81.80
2017-07-01T06:12:57.542Z,82.10
2017-07-01T06:15:59.542Z,82.40
2017-07-01T06:18:40.310Z,82.40
2017-07-01T06:21:26.295Z,82.00
2017-07-01T06:23:54.718Z,81.90
2017-07-01T06:26:38.818Z,82.10
2017-07-01T06:29:18.944Z,82.20
2017-07-01T06:32:02.392Z,83.00
2017-07-01T06:34:41.762Z,83.10
2017-07-01T06:37:11.156Z,82.70
2017-07-01T06:39:39.704Z,81.40
2017-07-01T06:42:09.351Z,81.30
2017-07-01T06:44:36.975Z,80.90
2017-07-01T06:47:05.043Z,80.10
2017-07-01T06:49:47.522Z,80.30
2017-07-01T06:52:17.208Z,80.30
2017-07-01T06:54:45.239Z,80.30
2017-07-01T06:57:15.012Z,80.30
2017-07-01T06:59:43.596Z,80.40
2017-07-01T07:02:13.949Z,80.40
2017-07-01T07:04:43.607Z,80.40
2017-07-01T07:07:12.002Z,81.00
2017-07-01T07:09:39.594Z,81.00
2017-07-01T07:12:10.868Z,81.10
2017-07-01T07:14:39.662Z,81.30
2017-07-01T07:17:08.380Z,80.30
2017-07-01T07:19:37.967Z,80.70
2017-07-01T07:22:07.408Z,80.70
2017-07-01T07:24:42.828Z,81.40
2017-07-01T07:27:12.245Z,81.40
2017-07-01T07:29:40.006Z,81.90
2017-07-01T07:32:08.533Z,82.60
2017-07-01T07:34:36.409Z,82.70
2017-07-01T07:39:51.797Z,83.60
2017-07-01T07:42:23.891Z,84.00
2017-07-01T07:47:31.845Z,84.00
2017-07-01T07:50:05.352Z,83.60
2017-07-01T07:52:33.977Z,82.90
2017-07-01T07:55:01.647Z,82.90
2017-07-01T07:57:29.465Z,82.70
2017-07-01T07:59:57.128Z,82.30
2017-07-01T08:02:25.729Z,82.50
2017-07-01T08:04:53.314Z,81.80
2017-07-01T08:07:21.117Z,81.00
2017-07-01T08:10:06.045Z,80.80
2017-07-01T08:12:33.540Z,80.70
2017-07-01T08:15:03.968Z,80.40
2017-07-01T08:17:34.991Z,80.00
2017-07-01T08:20:03.334Z,79.70
2017-07-01T08:22:37.778Z,79.10
2017-07-01T08:27:52.431Z,80.40
2017-07-01T08:30:22.101Z,79.20
2017-07-01T08:32:51.580Z,78.40
2017-07-01T08:35:19.203Z,78.10
2017-07-01T08:37:47.825Z,76.60
2017-07-01T08:40:16.215Z,75.30
2017-07-01T08:42:44.929Z,73.50
2017-07-01T08:45:16.060Z,73.80
2017-07-01T08:47:45.973Z,73.30
2017-07-01T08:50:16.793Z,76.40
2017-07-01T08:52:44.437Z,76.40
2017-07-01T08:55:11.945Z,77.70
2017-07-01T08:57:42.337Z,79.40
2017-07-01T09:00:10.100Z,78.70
2017-07-01T09:02:37.690Z,79.50
2017-07-01T09:05:11.037Z,78.80
2017-07-01T09:07:38.934Z,78.30
2017-07-01T09:10:06.707Z,78.00
2017-07-01T09:12:35.326Z,74.60
2017-07-01T09:15:06.750Z,74.40
2017-07-01T09:17:34.550Z,69.60
2017-07-01T09:20:03.875Z,68.10
2017-07-01T09:22:31.373Z,68.40
2017-07-01T09:24:59.054Z,66.90
2017-07-01T09:27:26.875Z,67.60
2017-07-01T09:29:56.005Z,69.10
2017-07-01T09:32:24.472Z,69.10
2017-07-01T09:34:52.348Z,69.00
2017-07-01T09:37:20.063Z,70.00
2017-07-01T09:39:49.491Z,70.60
2017-07-01T09:42:17.403Z,71.70
2017-07-01T09:44:47.111Z,71.60
2017-07-01T09:47:18.669Z,71.60
2017-07-01T09:52:23.968Z,73.40
2017-07-01T09:54:51.799Z,73.50
2017-07-01T09:57:20.231Z,73.70
2017-07-01T09:59:54.939Z,73.50
2017-07-01T10:02:24.666Z,73.30
2017-07-01T10:04:52.367Z,73.20
2017-07-01T10:07:20.152Z,73.90
2017-07-01T10:09:47.831Z,75.30
2017-07-01T10:12:15.350Z,76.10
2017-07-01T10:14:43.633Z,76.90
2017-07-01T10:17:12.447Z,77.80
2017-07-01T10:19:40.119Z,77.90
2017-07-01T10:22:10.262Z,79.20
2017-07-01T10:24:37.809Z,79.10
2017-07-01T10:27:07.956Z,79.60
2017-07-01T10:29:37.986Z,80.20
2017-07-01T10:32:07.125Z,80.50
2017-07-01T10:34:35.053Z,80.40
2017-07-01T10:37:03.370Z,81.10
2017-07-01T10:39:31.932Z,81.10
2017-07-01T10:42:00.245Z,81.50
2017-07-01T10:44:31.460Z,81.30
2017-07-01T10:46:59.961Z,81.90
2017-07-01T10:49:27.464Z,81.90
2017-07-01T10:51:54.985Z,82.10
2017-07-01T10:54:25.658Z,81.90
2017-07-01T10:57:07.448Z,81.80
2017-07-01T10:59:39.077Z,82.00
2017-07-01T11:02:06.861Z,81.90
2017-07-01T11:04:35.783Z,82.50
2017-07-01T11:09:53.027Z,82.20
2017-07-01T11:12:26.773Z,82.00
2017-07-01T11:14:56.419Z,81.80
2017-07-01T11:17:41.540Z,81.90
2017-07-01T11:20:09.145Z,81.80
2017-07-01T11:22:36.911Z,82.20
2017-07-01T11:25:06.805Z,82.90
2017-07-01T11:27:41.797Z,83.00
2017-07-01T11:30:09.636Z,82.90
2017-07-01T11:32:38.248Z,83.00
2017-07-01T11:35:05.951Z,82.00
2017-07-01T11:37:35.461Z,82.50
2017-07-01T11:40:07.135Z,81.30
2017-07-01T11:42:37.641Z,80.80
2017-07-01T11:45:17.896Z,80.60
2017-07-01T11:47:50.429Z,80.70
2017-07-01T11:50:50.595Z,80.20
2017-07-01T11:56:32.951Z,80.90
2017-07-01T11:59:04.847Z,80.30
2017-07-01T12:01:36.686Z,80.60
2017-07-01T12:04:12.144Z,79.90
2017-07-01T12:06:43.961Z,80.60
2017-07-01T12:09:11.963Z,79.20
2017-07-01T12:11:39.498Z,79.40
2017-07-01T12:14:10.656Z,79.70
2017-07-01T12:19:19.746Z,80.20
2017-07-01T12:21:47.363Z,80.20
2017-07-01T12:24:14.999Z,79.80
2017-07-01T12:26:42.524Z,79.10
2017-07-01T12:29:10.610Z,79.00
2017-07-01T12:31:38.400Z,79.20
2017-07-01T12:34:06.562Z,78.60
2017-07-01T12:36:34.291Z,78.50
2017-07-01T12:39:01.888Z,78.70
2017-07-01T12:41:34.266Z,79.10
2017-07-01T12:44:05.629Z,78.30
2017-07-01T12:46:33.988Z,79.00
2017-07-01T12:49:01.593Z,78.50
2017-07-01T12:51:29.539Z,78.60
2017-07-01T12:53:57.225Z,78.40
2017-07-01T12:56:24.945Z,78.10
2017-07-01T12:58:52.479Z,77.10
2017-07-01T13:01:20.456Z,75.80
2017-07-01T13:03:48.637Z,76.80
2017-07-01T13:06:16.634Z,76.80
2017-07-01T13:08:44.692Z,76.10
2017-07-01T13:11:12.972Z,76.50
2017-07-01T13:13:41.162Z,77.30
2017-07-01T13:16:09.819Z,78.60
2017-07-01T13:18:37.401Z,79.60
2017-07-01T13:21:07.958Z,79.60
2017-07-01T13:23:36.756Z,79.20
2017-07-01T13:26:07.141Z,79.10
2017-07-01T13:28:38.810Z,78.80
2017-07-01T13:31:31.018Z,77.20
2017-07-01T13:33:59.843Z,77.20
2017-07-01T13:36:32.315Z,77.70
2017-07-01T13:39:00.072Z,77.60
2017-07-01T13:41:29.161Z,77.70
2017-07-01T13:43:57.319Z,78.90
2017-07-01T13:46:25.006Z,78.80
2017-07-01T13:51:31.513Z,79.20
2017-07-01T13:56:39.400Z,80.20
2017-07-01T13:59:11.744Z,80.80
2017-07-01T14:01:41.325Z,81.40
2017-07-01T14:04:09.996Z,81.40
2017-07-01T14:06:40.675Z,81.40
2017-07-01T14:09:08.502Z,80.50
2017-07-01T14:11:41.884Z,80.30
2017-07-01T14:14:09.719Z,80.80
2017-07-01T14:16:37.505Z,80.60
2017-07-01T14:19:08.941Z,81.30
2017-07-01T14:21:37.282Z,81.40
2017-07-01T14:24:08.003Z,82.30
2017-07-01T14:26:35.583Z,82.50
2017-07-01T14:29:03.268Z,83.20
2017-07-01T14:31:31.081Z,83.50
2017-07-01T14:34:00.349Z,84.80
2017-07-01T14:36:27.833Z,84.70
2017-07-01T14:38:55.572Z,85.00
2017-07-01T14:41:23.086Z,85.70
2017-07-01T14:43:51.927Z,85.90
2017-07-01T14:46:20.238Z,85.90
2017-07-01T14:48:47.801Z,85.70
2017-07-01T14:53:53.865Z,86.30
2017-07-01T14:56:21.931Z,86.60
2017-07-01T14:58:49.931Z,85.40
2017-07-01T15:01:22.681Z,84.50
2017-07-01T15:03:51.223Z,84.80
2017-07-01T15:06:18.873Z,85.20
2017-07-01T15:08:47.111Z,85.40
2017-07-01T15:11:16.709Z,83.90
2017-07-01T15:13:44.797Z,84.30
2017-07-01T15:16:14.314Z,83.90
2017-07-01T15:18:43.673Z,83.80
2017-07-01T15:21:15.558Z,84.60
2017-07-01T15:23:49.045Z,83.70
2017-07-01T15:26:20.823Z,83.40
2017-07-01T15:28:57.512Z,83.40
2017-07-01T15:31:26.998Z,82.90
2017-07-01T15:33:54.560Z,82.70
2017-07-01T15:36:22.586Z,82.70
2017-07-01T15:38:50.258Z,83.60
2017-07-01T15:41:17.951Z,83.60
2017-07-01T15:43:51.424Z,84.10
2017-07-01T15:46:22.210Z,84.00
2017-07-01T15:48:49.914Z,84.00
2017-07-01T15:51:17.647Z,84.10
2017-07-01T15:56:30.011Z,84.00
2017-07-01T15:58:58.413Z,83.10
2017-07-01T16:01:42.034Z,83.00
2017-07-01T16:04:16.106Z,83.40
2017-07-01T16:06:48.904Z,83.50
2017-07-01T16:09:18.122Z,83.70
2017-07-01T16:11:48.465Z,83.10
2017-07-01T16:14:22.981Z,83.10
2017-07-01T16:16:56.576Z,83.20
2017-07-01T16:19:25.057Z,82.80
2017-07-01T16:21:53.967Z,82.50
2017-07-01T16:26:55.716Z,82.50
2017-07-01T16:29:24.504Z,83.50
2017-07-01T16:31:52.083Z,83.40
2017-07-01T16:34:19.686Z,83.40
2017-07-01T16:36:47.336Z,83.30
2017-07-01T16:42:10.634Z,83.10
2017-07-01T16:44:56.549Z,83.50
2017-07-01T16:47:27.837Z,83.20
2017-07-01T16:49:55.450Z,82.90
2017-07-01T16:52:24.088Z,82.20
2017-07-01T16:54:51.569Z,82.10
2017-07-01T16:57:19.144Z,83.30
2017-07-01T16:59:46.680Z,83.30
2017-07-01T17:02:14.185Z,82.60
2017-07-01T17:04:46.200Z,83.80
2017-07-01T17:07:18.667Z,83.30
2017-07-01T17:09:51.185Z,83.10
2017-07-01T17:12:19.503Z,82.60
2017-07-01T17:14:49.212Z,83.10
2017-07-01T17:17:17.937Z,82.70
2017-07-01T17:19:45.648Z,82.70
2017-07-01T17:22:21.957Z,82.80
2017-07-01T17:24:54.949Z,82.90
2017-07-01T17:27:26.119Z,82.70
2017-07-01T17:29:54.793Z,83.10
2017-07-01T17:32:23.346Z,83.20
2017-07-01T17:34:51.236Z,82.80
2017-07-01T17:37:18.772Z,83.20
2017-07-01T17:39:46.563Z,82.80
2017-07-01T17:42:14.135Z,82.40
2017-07-01T17:44:41.666Z,82.10
2017-07-01T17:47:10.165Z,82.50
2017-07-01T17:49:39.544Z,81.80
2017-07-01T17:52:07.201Z,81.70
2017-07-01T17:54:34.833Z,82.00
2017-07-01T17:57:02.991Z,82.60
2017-07-01T17:59:30.720Z,82.80
2017-07-01T18:01:58.568Z,82.70
2017-07-01T18:04:26.168Z,82.90
2017-07-01T18:06:53.752Z,83.30
2017-07-01T18:09:21.345Z,83.20
2017-07-01T18:11:48.941Z,83.20
2017-07-01T18:14:16.590Z,83.20
2017-07-01T18:16:44.059Z,83.50
2017-07-01T18:19:11.610Z,83.40
2017-07-01T18:21:39.130Z,84.10
2017-07-01T18:24:06.619Z,83.50
2017-07-01T18:26:34.412Z,83.00
2017-07-01T18:29:02.389Z,83.30
2017-07-01T18:31:31.299Z,83.40
2017-07-01T18:33:59.519Z,84.00
2017-07-01T18:36:28.681Z,83.50
2017-07-01T18:38:58.347Z,83.50
2017-07-01T18:41:25.927Z,83.80
2017-07-01T18:43:54.077Z,83.70
2017-07-01T18:46:21.871Z,83.80
2017-07-01T18:48:49.928Z,84.10
2017-07-01T18:51:17.510Z,84.20
2017-07-01T18:53:44.998Z,84.50
2017-07-01T18:56:12.561Z,84.60
2017-07-01T18:58:40.435Z,84.90
2017-07-01T19:01:08.927Z,84.30
2017-07-01T19:03:36.471Z,84.20
2017-07-01T19:06:04.841Z,84.10
2017-07-01T19:08:32.442Z,84.10
2017-07-01T19:11:00.884Z,83.80
2017-07-01T19:13:28.632Z,83.70
2017-07-01T19:15:57.203Z,84.00
2017-07-01T19:18:24.693Z,84.80
2017-07-01T19:20:52.179Z,85.00
2017-07-01T19:23:19.709Z,85.20
2017-07-01T19:25:47.520Z,85.20
2017-07-01T19:28:15.853Z,85.70
2017-07-01T19:30:43.515Z,85.20
2017-07-01T19:33:11.098Z,85.40
2017-07-01T19:35:38.558Z,85.40
2017-07-01T19:38:06.087Z,85.30
2017-07-01T19:40:34.746Z,85.70
2017-07-01T19:43:03.105Z,85.60
2017-07-01T19:45:30.672Z,85.90
2017-07-01T19:47:58.250Z,85.80
2017-07-01T19:50:25.970Z,85.40
2017-07-01T19:52:53.551Z,85.60
2017-07-01T19:55:21.259Z,85.40
2017-07-01T19:57:48.880Z,86.00
2017-07-01T20:00:17.150Z,86.90
2017-07-01T20:02:45.784Z,86.20
2017-07-01T20:05:14.694Z,86.40
2017-07-01T20:07:42.697Z,86.30
2017-07-01T20:10:11.508Z,86.30
2017-07-01T20:12:46.200Z,86.20
2017-07-01T20:15:13.896Z,86.30
2017-07-01T20:22:53.363Z,85.30
2017-07-01T20:25:20.888Z,85.50
2017-07-01T20:27:49.245Z,85.00
2017-07-01T20:30:16.972Z,85.00
2017-07-01T20:32:46.790Z,84.80
2017-07-01T20:35:14.811Z,84.50
2017-07-01T20:37:42.487Z,84.70
2017-07-01T20:40:10.316Z,84.70
2017-07-01T20:42:38.297Z,84.70
2017-07-01T20:45:06.683Z,84.70
2017-07-01T20:47:34.350Z,84.70
2017-07-01T20:50:04.897Z,84.70
2017-07-01T20:52:33.085Z,84.40
2017-07-01T20:55:02.358Z,84.50
2017-07-01T20:57:33.826Z,84.50
2017-07-01T21:00:03.451Z,84.80
2017-07-01T21:02:34.117Z,84.80
2017-07-01T21:05:01.715Z,84.80
2017-07-01T21:07:29.292Z,84.90
2017-07-01T21:09:56.756Z,85.60
2017-07-01T21:12:24.263Z,84.70
2017-07-01T21:14:51.891Z,84.90
2017-07-01T21:17:20.301Z,84.70
2017-07-01T21:19:48.419Z,84.80
2017-07-01T21:22:16.872Z,84.20
2017-07-01T21:24:44.912Z,84.80
2017-07-01T21:27:12.511Z,84.00
2017-07-01T21:29:40.074Z,82.90
2017-07-01T21:32:07.524Z,82.20
2017-07-01T21:34:35.111Z,81.30
2017-07-01T21:37:02.913Z,80.10
2017-07-01T21:39:30.653Z,79.40
2017-07-01T21:41:58.421Z,79.50
2017-07-01T21:44:26.356Z,78.90
2017-07-01T21:46:53.828Z,77.90
2017-07-01T21:49:22.052Z,77.10
2017-07-01T21:51:50.254Z,77.10
2017-07-01T21:54:17.741Z,76.70
2017-07-01T21:56:45.344Z,75.90
2017-07-01T21:59:13.108Z,76.10
2017-07-01T22:01:40.589Z,75.40
2017-07-01T22:04:08.047Z,75.20
2017-07-01T22:06:35.572Z,75.80
2017-07-01T22:09:03.085Z,76.30
2017-07-01T22:11:31.438Z,76.40
2017-07-01T22:13:59.053Z,76.30
2017-07-01T22:16:26.861Z,75.70
2017-07-01T22:18:54.557Z,75.50
2017-07-01T22:21:22.342Z,75.10
2017-07-01T22:23:50.064Z,75.50
2017-07-01T22:26:17.564Z,75.90
2017-07-01T22:28:45.029Z,75.60
2017-07-01T22:31:12.684Z,75.10
2017-07-01T22:33:40.201Z,75.60
2017-07-01T22:36:07.752Z,75.40
2017-07-01T22:38:35.463Z,75.40
2017-07-01T22:41:02.988Z,75.30
2017-07-01T22:43:30.688Z,75.40
2017-07-01T22:45:58.239Z,74.70
2017-07-01T22:48:26.058Z,74.80
2017-07-01T22:50:55.358Z,75.00
2017-07-01T22:53:23.593Z,74.80
2017-07-01T22:55:51.216Z,74.80
2017-07-01T22:58:18.859Z,74.50
2017-07-01T23:00:46.451Z,75.10
2017-07-01T23:03:14.494Z,75.30
2017-07-01T23:05:41.985Z,74.90
2017-07-01T23:08:09.612Z,75.30
2017-07-01T23:10:37.184Z,75.00
2017-07-01T23:13:05.308Z,75.00
2017-07-01T23:15:32.875Z,75.10
2017-07-01T23:18:00.328Z,75.30
2017-07-01T23:20:27.800Z,75.60
2017-07-01T23:22:55.257Z,76.00
2017-07-01T23:25:22.743Z,76.40
2017-07-01T23:27:50.381Z,76.40
2017-07-01T23:30:17.872Z,76.70
2017-07-01T23:32:45.560Z,76.70
2017-07-01T23:35:13.082Z,77.20
2017-07-01T23:37:40.564Z,77.00
2017-07-01T23:40:09.506Z,77.00
2017-07-01T23:42:37.694Z,77.00
2017-07-01T23:45:05.163Z,76.80
2017-07-01T23:47:32.776Z,77.10
2017-07-01T23:50:00.375Z,77.10
2017-07-01T23:52:27.861Z,76.90
2017-07-01T23:54:55.623Z,76.90
2017-07-01T23:57:23.092Z,77.00
2017-07-01T23:59:50.598Z,77.40
